sensor_id;sensor_type;location;lat;lon;timestamp;P1;durP1;ratioP1;P2;durP2;ratioP2
64094;SDS011;50353;51.420;5.682;2022-12-10T00:04:11;41.67;;;20.58;;
64094;SDS011;50353;51.420;5.682;2022-12-10T00:06:37;40.25;;;19.67;;
64094;SDS011;50353;51.420;5.682;2022-12-10T00:09:05;40.78;;;21.23;;
64094;SDS011;50353;51.420;5.682;2022-12-10T00:11:32;39.83;;;20.75;;
64094;SDS011;50353;51.420;5.682;2022-12-10T00:13:58;39.38;;;20.98;;
64094;SDS011;50353;51.420;5.682;2022-12-10T00:16:24;41.25;;;20.88;;
64094;SDS011;50353;51.420;5.682;2022-12-10T00:18:52;39.55;;;20.20;;
64094;SDS011;50353;51.420;5.682;2022-12-10T00:21:19;42.50;;;21.50;;
64094;SDS011;50353;51.420;5.682;2022-12-10T00:23:46;40.58;;;20.70;;
64094;SDS011;50353;51.420;5.682;2022-12-10T00:26:22;42.33;;;20.67;;
64094;SDS011;50353;51.420;5.682;2022-12-10T00:28:49;40.78;;;21.08;;
64094;SDS011;50353;51.420;5.682;2022-12-10T00:33:41;39.35;;;19.63;;
64094;SDS011;50353;51.420;5.682;2022-12-10T00:36:09;40.72;;;20.25;;
64094;SDS011;50353;51.420;5.682;2022-12-10T00:38:36;41.13;;;19.35;;
64094;SDS011;50353;51.420;5.682;2022-12-10T00:41:03;37.67;;;19.30;;
64094;SDS011;50353;51.420;5.682;2022-12-10T00:43:29;38.97;;;19.13;;
64094;SDS011;50353;51.420;5.682;2022-12-10T00:45:54;36.50;;;19.60;;
64094;SDS011;50353;51.420;5.682;2022-12-10T00:48:20;40.97;;;20.30;;
64094;SDS011;50353;51.420;5.682;2022-12-10T00:50:54;43.00;;;21.52;;
64094;SDS011;50353;51.420;5.682;2022-12-10T00:53:31;39.42;;;20.48;;
64094;SDS011;50353;51.420;5.682;2022-12-10T00:55:58;37.60;;;20.67;;
64094;SDS011;50353;51.420;5.682;2022-12-10T00:58:26;44.13;;;22.20;;
64094;SDS011;50353;51.420;5.682;2022-12-10T01:00:53;42.90;;;21.75;;
64094;SDS011;50353;51.420;5.682;2022-12-10T01:03:18;43.38;;;21.50;;
64094;SDS011;50353;51.420;5.682;2022-12-10T01:05:44;44.83;;;22.02;;
64094;SDS011;50353;51.420;5.682;2022-12-10T01:08:09;40.22;;;20.30;;
64094;SDS011;50353;51.420;5.682;2022-12-10T01:10:35;37.10;;;20.13;;
64094;SDS011;50353;51.420;5.682;2022-12-10T01:13:01;48.67;;;20.95;;
64094;SDS011;50353;51.420;5.682;2022-12-10T01:15:26;40.92;;;20.92;;
64094;SDS011;50353;51.420;5.682;2022-12-10T01:17:52;42.40;;;20.15;;
64094;SDS011;50353;51.420;5.682;2022-12-10T01:20:17;44.30;;;20.38;;
64094;SDS011;50353;51.420;5.682;2022-12-10T01:22:42;39.00;;;19.60;;
64094;SDS011;50353;51.420;5.682;2022-12-10T01:25:08;40.60;;;20.83;;
64094;SDS011;50353;51.420;5.682;2022-12-10T01:27:33;41.15;;;21.17;;
64094;SDS011;50353;51.420;5.682;2022-12-10T01:29:58;35.05;;;19.48;;
64094;SDS011;50353;51.420;5.682;2022-12-10T01:32:24;37.58;;;19.70;;
64094;SDS011;50353;51.420;5.682;2022-12-10T01:34:49;36.92;;;19.20;;
64094;SDS011;50353;51.420;5.682;2022-12-10T01:37:14;43.30;;;22.40;;
64094;SDS011;50353;51.420;5.682;2022-12-10T01:39:40;42.75;;;21.30;;
64094;SDS011;50353;51.420;5.682;2022-12-10T01:42:05;48.30;;;20.77;;
64094;SDS011;50353;51.420;5.682;2022-12-10T01:46:57;43.07;;;21.47;;
64094;SDS011;50353;51.420;5.682;2022-12-10T01:49:26;39.65;;;20.23;;
64094;SDS011;50353;51.420;5.682;2022-12-10T01:51:56;39.17;;;19.77;;
64094;SDS011;50353;51.420;5.682;2022-12-10T01:54:23;42.30;;;20.73;;
64094;SDS011;50353;51.420;5.682;2022-12-10T01:56:54;36.17;;;20.17;;
64094;SDS011;50353;51.420;5.682;2022-12-10T01:59:24;40.20;;;20.50;;
64094;SDS011;50353;51.420;5.682;2022-12-10T02:07:02;37.28;;;19.75;;
64094;SDS011;50353;51.420;5.682;2022-12-10T02:12:10;35.80;;;18.67;;
64094;SDS011;50353;51.420;5.682;2022-12-10T02:17:24;39.50;;;18.90;;
64094;SDS011;50353;51.420;5.682;2022-12-10T02:19:59;46.30;;;21.90;;
64094;SDS011;50353;51.420;5.682;2022-12-10T02:22:29;58.55;;;26.67;;
64094;SDS011;50353;51.420;5.682;2022-12-10T02:24:58;54.25;;;25.08;;
64094;SDS011;50353;51.420;5.682;2022-12-10T02:30:07;66.75;;;30.50;;
64094;SDS011;50353;51.420;5.682;2022-12-10T02:32:35;72.70;;;31.60;;
64094;SDS011;50353;51.420;5.682;2022-12-10T02:35:07;68.70;;;31.55;;
64094;SDS011;50353;51.420;5.682;2022-12-10T02:37:42;65.80;;;29.80;;
64094;SDS011;50353;51.420;5.682;2022-12-10T02:40:33;69.03;;;31.83;;
64094;SDS011;50353;51.420;5.682;2022-12-10T02:43:01;74.30;;;32.88;;
64094;SDS011;50353;51.420;5.682;2022-12-10T02:45:28;69.45;;;32.22;;
64094;SDS011;50353;51.420;5.682;2022-12-10T02:47:56;72.95;;;31.70;;
64094;SDS011;50353;51.420;5.682;2022-12-10T02:50:23;70.63;;;33.30;;
64094;SDS011;50353;51.420;5.682;2022-12-10T02:52:49;62.65;;;27.95;;
64094;SDS011;50353;51.420;5.682;2022-12-10T02:55:15;70.47;;;32.20;;
64094;SDS011;50353;51.420;5.682;2022-12-10T02:57:49;68.50;;;30.37;;
64094;SDS011;50353;51.420;5.682;2022-12-10T03:00:26;72.10;;;32.00;;
64094;SDS011;50353;51.420;5.682;2022-12-10T03:08:54;81.22;;;36.58;;
64094;SDS011;50353;51.420;5.682;2022-12-10T03:11:26;78.40;;;35.22;;
64094;SDS011;50353;51.420;5.682;2022-12-10T03:14:00;77.40;;;34.73;;
64094;SDS011;50353;51.420;5.682;2022-12-10T03:16:54;78.75;;;33.75;;
64094;SDS011;50353;51.420;5.682;2022-12-10T03:19:23;85.68;;;38.25;;
64094;SDS011;50353;51.420;5.682;2022-12-10T03:21:53;74.65;;;34.25;;
64094;SDS011;50353;51.420;5.682;2022-12-10T03:24:20;69.63;;;31.88;;
64094;SDS011;50353;51.420;5.682;2022-12-10T03:26:47;77.27;;;34.67;;
64094;SDS011;50353;51.420;5.682;2022-12-10T03:29:15;81.93;;;34.63;;
64094;SDS011;50353;51.420;5.682;2022-12-10T03:31:45;78.18;;;33.03;;
64094;SDS011;50353;51.420;5.682;2022-12-10T03:34:12;80.30;;;35.30;;
64094;SDS011;50353;51.420;5.682;2022-12-10T03:36:38;86.93;;;35.70;;
64094;SDS011;50353;51.420;5.682;2022-12-10T03:39:05;87.55;;;37.40;;
64094;SDS011;50353;51.420;5.682;2022-12-10T03:41:32;86.78;;;37.35;;
64094;SDS011;50353;51.420;5.682;2022-12-10T03:43:58;80.38;;;35.35;;
64094;SDS011;50353;51.420;5.682;2022-12-10T03:46:25;85.97;;;37.97;;
64094;SDS011;50353;51.420;5.682;2022-12-10T03:48:52;85.53;;;38.40;;
64094;SDS011;50353;51.420;5.682;2022-12-10T03:51:18;91.32;;;39.38;;
64094;SDS011;50353;51.420;5.682;2022-12-10T03:53:43;87.13;;;38.13;;
64094;SDS011;50353;51.420;5.682;2022-12-10T03:56:09;83.10;;;37.83;;
64094;SDS011;50353;51.420;5.682;2022-12-10T03:58:34;89.13;;;37.95;;
64094;SDS011;50353;51.420;5.682;2022-12-10T04:01:00;87.80;;;36.95;;
64094;SDS011;50353;51.420;5.682;2022-12-10T04:03:26;83.53;;;37.15;;
64094;SDS011;50353;51.420;5.682;2022-12-10T04:05:51;83.35;;;34.95;;
64094;SDS011;50353;51.420;5.682;2022-12-10T04:08:16;89.05;;;38.05;;
64094;SDS011;50353;51.420;5.682;2022-12-10T04:10:42;83.57;;;37.30;;
64094;SDS011;50353;51.420;5.682;2022-12-10T04:13:07;90.53;;;39.22;;
64094;SDS011;50353;51.420;5.682;2022-12-10T04:15:51;82.05;;;33.75;;
64094;SDS011;50353;51.420;5.682;2022-12-10T04:18:35;80.63;;;35.22;;
64094;SDS011;50353;51.420;5.682;2022-12-10T04:21:00;87.40;;;35.50;;
64094;SDS011;50353;51.420;5.682;2022-12-10T04:23:44;78.55;;;35.42;;
64094;SDS011;50353;51.420;5.682;2022-12-10T04:26:28;81.57;;;35.10;;
64094;SDS011;50353;51.420;5.682;2022-12-10T04:29:12;69.45;;;30.08;;
64094;SDS011;50353;51.420;5.682;2022-12-10T04:31:37;77.15;;;32.80;;
64094;SDS011;50353;51.420;5.682;2022-12-10T04:34:02;81.82;;;35.55;;
64094;SDS011;50353;51.420;5.682;2022-12-10T04:36:27;85.68;;;35.45;;
64094;SDS011;50353;51.420;5.682;2022-12-10T04:38:53;91.53;;;36.78;;
64094;SDS011;50353;51.420;5.682;2022-12-10T04:41:18;89.60;;;37.63;;
64094;SDS011;50353;51.420;5.682;2022-12-10T04:43:44;82.28;;;35.03;;
64094;SDS011;50353;51.420;5.682;2022-12-10T04:46:09;89.45;;;36.67;;
64094;SDS011;50353;51.420;5.682;2022-12-10T04:48:35;85.50;;;36.78;;
64094;SDS011;50353;51.420;5.682;2022-12-10T04:51:01;77.22;;;34.33;;
64094;SDS011;50353;51.420;5.682;2022-12-10T04:53:26;76.53;;;32.60;;
64094;SDS011;50353;51.420;5.682;2022-12-10T04:55:51;82.45;;;34.45;;
64094;SDS011;50353;51.420;5.682;2022-12-10T04:58:17;71.50;;;30.70;;
64094;SDS011;50353;51.420;5.682;2022-12-10T05:00:42;79.65;;;35.00;;
64094;SDS011;50353;51.420;5.682;2022-12-10T05:03:07;77.18;;;32.85;;
64094;SDS011;50353;51.420;5.682;2022-12-10T05:05:34;73.20;;;32.28;;
64094;SDS011;50353;51.420;5.682;2022-12-10T05:07:59;79.95;;;33.80;;
64094;SDS011;50353;51.420;5.682;2022-12-10T05:10:25;74.32;;;33.40;;
64094;SDS011;50353;51.420;5.682;2022-12-10T05:12:50;76.55;;;31.83;;
64094;SDS011;50353;51.420;5.682;2022-12-10T05:15:15;77.20;;;32.70;;
64094;SDS011;50353;51.420;5.682;2022-12-10T05:17:41;73.78;;;33.50;;
64094;SDS011;50353;51.420;5.682;2022-12-10T05:20:06;64.47;;;29.77;;
64094;SDS011;50353;51.420;5.682;2022-12-10T05:22:32;74.32;;;32.28;;
64094;SDS011;50353;51.420;5.682;2022-12-10T05:25:16;79.38;;;31.48;;
64094;SDS011;50353;51.420;5.682;2022-12-10T05:27:41;73.55;;;30.92;;
64094;SDS011;50353;51.420;5.682;2022-12-10T05:30:07;77.68;;;32.38;;
64094;SDS011;50353;51.420;5.682;2022-12-10T05:32:34;68.28;;;29.77;;
64094;SDS011;50353;51.420;5.682;2022-12-10T05:34:59;67.65;;;30.42;;
64094;SDS011;50353;51.420;5.682;2022-12-10T05:37:25;69.95;;;30.52;;
64094;SDS011;50353;51.420;5.682;2022-12-10T05:39:50;77.70;;;31.40;;
64094;SDS011;50353;51.420;5.682;2022-12-10T05:42:15;67.75;;;29.20;;
64094;SDS011;50353;51.420;5.682;2022-12-10T05:44:40;61.42;;;28.27;;
64094;SDS011;50353;51.420;5.682;2022-12-10T05:47:06;63.63;;;27.75;;
64094;SDS011;50353;51.420;5.682;2022-12-10T05:49:31;52.08;;;22.83;;
64094;SDS011;50353;51.420;5.682;2022-12-10T05:51:56;47.67;;;22.23;;
64094;SDS011;50353;51.420;5.682;2022-12-10T05:54:21;56.83;;;26.50;;
64094;SDS011;50353;51.420;5.682;2022-12-10T05:56:47;62.83;;;26.10;;
64094;SDS011;50353;51.420;5.682;2022-12-10T05:59:12;62.75;;;27.60;;
64094;SDS011;50353;51.420;5.682;2022-12-10T06:01:37;57.63;;;25.95;;
64094;SDS011;50353;51.420;5.682;2022-12-10T06:04:04;57.10;;;25.48;;
64094;SDS011;50353;51.420;5.682;2022-12-10T06:06:31;56.80;;;24.50;;
64094;SDS011;50353;51.420;5.682;2022-12-10T06:08:58;63.03;;;26.70;;
64094;SDS011;50353;51.420;5.682;2022-12-10T06:11:24;62.17;;;26.58;;
64094;SDS011;50353;51.420;5.682;2022-12-10T06:13:51;60.40;;;25.75;;
64094;SDS011;50353;51.420;5.682;2022-12-10T06:16:16;46.95;;;21.25;;
64094;SDS011;50353;51.420;5.682;2022-12-10T06:18:42;63.90;;;26.35;;
64094;SDS011;50353;51.420;5.682;2022-12-10T06:21:09;68.35;;;27.17;;
64094;SDS011;50353;51.420;5.682;2022-12-10T06:23:36;63.75;;;27.77;;
64094;SDS011;50353;51.420;5.682;2022-12-10T06:26:03;59.58;;;24.67;;
64094;SDS011;50353;51.420;5.682;2022-12-10T06:28:29;57.92;;;26.20;;
64094;SDS011;50353;51.420;5.682;2022-12-10T06:30:57;62.60;;;25.52;;
64094;SDS011;50353;51.420;5.682;2022-12-10T06:33:23;58.60;;;25.75;;
64094;SDS011;50353;51.420;5.682;2022-12-10T06:35:48;53.33;;;23.55;;
64094;SDS011;50353;51.420;5.682;2022-12-10T06:38:14;55.65;;;24.00;;
64094;SDS011;50353;51.420;5.682;2022-12-10T06:40:39;57.35;;;25.35;;
64094;SDS011;50353;51.420;5.682;2022-12-10T06:43:05;61.88;;;24.63;;
64094;SDS011;50353;51.420;5.682;2022-12-10T06:45:30;62.65;;;27.15;;
64094;SDS011;50353;51.420;5.682;2022-12-10T06:47:55;83.05;;;35.33;;
64094;SDS011;50353;51.420;5.682;2022-12-10T06:50:21;63.13;;;27.45;;
64094;SDS011;50353;51.420;5.682;2022-12-10T06:52:46;55.30;;;23.25;;
64094;SDS011;50353;51.420;5.682;2022-12-10T06:55:11;85.57;;;33.95;;
64094;SDS011;50353;51.420;5.682;2022-12-10T06:57:37;69.88;;;29.73;;
64094;SDS011;50353;51.420;5.682;2022-12-10T07:00:02;56.83;;;24.60;;
64094;SDS011;50353;51.420;5.682;2022-12-10T07:02:28;58.07;;;26.00;;
64094;SDS011;50353;51.420;5.682;2022-12-10T07:04:54;58.55;;;23.75;;
64094;SDS011;50353;51.420;5.682;2022-12-10T07:07:21;60.80;;;25.25;;
64094;SDS011;50353;51.420;5.682;2022-12-10T07:09:47;56.10;;;24.52;;
64094;SDS011;50353;51.420;5.682;2022-12-10T07:12:12;53.90;;;23.08;;
64094;SDS011;50353;51.420;5.682;2022-12-10T07:14:37;52.90;;;22.23;;
64094;SDS011;50353;51.420;5.682;2022-12-10T07:17:02;54.30;;;22.83;;
64094;SDS011;50353;51.420;5.682;2022-12-10T07:19:30;53.85;;;23.50;;
64094;SDS011;50353;51.420;5.682;2022-12-10T07:21:55;53.95;;;23.50;;
64094;SDS011;50353;51.420;5.682;2022-12-10T07:24:20;52.42;;;21.08;;
64094;SDS011;50353;51.420;5.682;2022-12-10T07:26:46;52.45;;;20.98;;
64094;SDS011;50353;51.420;5.682;2022-12-10T07:29:13;46.15;;;21.23;;
64094;SDS011;50353;51.420;5.682;2022-12-10T07:31:42;54.85;;;22.98;;
64094;SDS011;50353;51.420;5.682;2022-12-10T07:34:09;59.38;;;25.10;;
64094;SDS011;50353;51.420;5.682;2022-12-10T07:36:35;63.38;;;27.55;;
64094;SDS011;50353;51.420;5.682;2022-12-10T07:39:00;57.35;;;24.55;;
64094;SDS011;50353;51.420;5.682;2022-12-10T07:41:26;60.75;;;25.83;;
64094;SDS011;50353;51.420;5.682;2022-12-10T07:43:51;62.22;;;26.52;;
64094;SDS011;50353;51.420;5.682;2022-12-10T07:46:19;64.82;;;25.65;;
64094;SDS011;50353;51.420;5.682;2022-12-10T07:48:49;63.85;;;25.80;;
64094;SDS011;50353;51.420;5.682;2022-12-10T07:51:15;69.80;;;26.90;;
64094;SDS011;50353;51.420;5.682;2022-12-10T07:53:42;61.33;;;24.55;;
64094;SDS011;50353;51.420;5.682;2022-12-10T07:56:08;58.92;;;23.05;;
64094;SDS011;50353;51.420;5.682;2022-12-10T07:58:34;60.63;;;26.30;;
64094;SDS011;50353;51.420;5.682;2022-12-10T08:01:05;67.00;;;26.40;;
64094;SDS011;50353;51.420;5.682;2022-12-10T08:03:31;70.80;;;27.75;;
64094;SDS011;50353;51.420;5.682;2022-12-10T08:06:03;53.80;;;22.08;;
64094;SDS011;50353;51.420;5.682;2022-12-10T08:08:34;61.90;;;25.27;;
64094;SDS011;50353;51.420;5.682;2022-12-10T08:11:00;49.75;;;22.25;;
64094;SDS011;50353;51.420;5.682;2022-12-10T08:13:27;44.15;;;19.73;;
64094;SDS011;50353;51.420;5.682;2022-12-10T08:15:53;46.47;;;19.73;;
64094;SDS011;50353;51.420;5.682;2022-12-10T08:18:18;81.25;;;31.13;;
64094;SDS011;50353;51.420;5.682;2022-12-10T08:20:43;64.63;;;27.17;;
64094;SDS011;50353;51.420;5.682;2022-12-10T08:23:09;70.88;;;26.90;;
64094;SDS011;50353;51.420;5.682;2022-12-10T08:25:35;68.82;;;27.75;;
64094;SDS011;50353;51.420;5.682;2022-12-10T08:28:01;63.38;;;26.73;;
64094;SDS011;50353;51.420;5.682;2022-12-10T08:30:27;86.67;;;37.53;;
64094;SDS011;50353;51.420;5.682;2022-12-10T08:32:53;66.97;;;25.00;;
64094;SDS011;50353;51.420;5.682;2022-12-10T08:35:18;64.30;;;26.17;;
64094;SDS011;50353;51.420;5.682;2022-12-10T08:37:44;56.00;;;22.65;;
64094;SDS011;50353;51.420;5.682;2022-12-10T08:40:09;57.20;;;23.65;;
64094;SDS011;50353;51.420;5.682;2022-12-10T08:42:35;67.38;;;25.80;;
64094;SDS011;50353;51.420;5.682;2022-12-10T08:45:00;149.55;;;59.58;;
64094;SDS011;50353;51.420;5.682;2022-12-10T08:47:26;63.63;;;24.95;;
64094;SDS011;50353;51.420;5.682;2022-12-10T08:49:52;62.75;;;24.30;;
64094;SDS011;50353;51.420;5.682;2022-12-10T08:52:17;61.20;;;26.25;;
64094;SDS011;50353;51.420;5.682;2022-12-10T08:54:42;65.57;;;25.45;;
64094;SDS011;50353;51.420;5.682;2022-12-10T08:57:07;68.97;;;26.27;;
64094;SDS011;50353;51.420;5.682;2022-12-10T08:59:33;70.90;;;27.70;;
64094;SDS011;50353;51.420;5.682;2022-12-10T09:01:58;59.80;;;23.30;;
64094;SDS011;50353;51.420;5.682;2022-12-10T09:04:23;69.30;;;26.55;;
64094;SDS011;50353;51.420;5.682;2022-12-10T09:06:49;70.07;;;27.52;;
64094;SDS011;50353;51.420;5.682;2022-12-10T09:09:15;69.78;;;26.10;;
64094;SDS011;50353;51.420;5.682;2022-12-10T09:11:40;72.40;;;27.50;;
64094;SDS011;50353;51.420;5.682;2022-12-10T09:14:06;69.13;;;26.27;;
64094;SDS011;50353;51.420;5.682;2022-12-10T09:16:32;80.45;;;27.35;;
64094;SDS011;50353;51.420;5.682;2022-12-10T09:19:00;83.07;;;28.98;;
64094;SDS011;50353;51.420;5.682;2022-12-10T09:21:25;71.82;;;26.38;;
64094;SDS011;50353;51.420;5.682;2022-12-10T09:23:51;73.93;;;27.42;;
64094;SDS011;50353;51.420;5.682;2022-12-10T09:26:17;74.22;;;28.25;;
64094;SDS011;50353;51.420;5.682;2022-12-10T09:28:43;74.10;;;28.20;;
64094;SDS011;50353;51.420;5.682;2022-12-10T09:31:09;74.70;;;27.63;;
64094;SDS011;50353;51.420;5.682;2022-12-10T09:33:36;76.00;;;28.77;;
64094;SDS011;50353;51.420;5.682;2022-12-10T09:36:03;73.45;;;27.35;;
64094;SDS011;50353;51.420;5.682;2022-12-10T09:38:31;69.30;;;27.23;;
64094;SDS011;50353;51.420;5.682;2022-12-10T09:51:25;61.78;;;24.85;;
64094;SDS011;50353;51.420;5.682;2022-12-10T09:53:54;70.32;;;27.67;;
64094;SDS011;50353;51.420;5.682;2022-12-10T09:56:34;82.50;;;29.45;;
64094;SDS011;50353;51.420;5.682;2022-12-10T09:59:10;83.78;;;29.63;;
64094;SDS011;50353;51.420;5.682;2022-12-10T10:01:42;74.20;;;27.25;;
64094;SDS011;50353;51.420;5.682;2022-12-10T10:04:09;69.43;;;26.07;;
64094;SDS011;50353;51.420;5.682;2022-12-10T10:06:35;66.78;;;26.85;;
64094;SDS011;50353;51.420;5.682;2022-12-10T10:09:01;72.40;;;27.48;;
64094;SDS011;50353;51.420;5.682;2022-12-10T10:11:29;69.57;;;26.98;;
64094;SDS011;50353;51.420;5.682;2022-12-10T10:16:55;74.90;;;27.70;;
64094;SDS011;50353;51.420;5.682;2022-12-10T10:19:34;66.13;;;25.17;;
64094;SDS011;50353;51.420;5.682;2022-12-10T10:22:02;84.03;;;28.40;;
64094;SDS011;50353;51.420;5.682;2022-12-10T10:24:33;71.78;;;26.48;;
64094;SDS011;50353;51.420;5.682;2022-12-10T10:27:10;74.72;;;26.80;;
64094;SDS011;50353;51.420;5.682;2022-12-10T10:29:41;76.82;;;28.25;;
64094;SDS011;50353;51.420;5.682;2022-12-10T10:32:18;80.18;;;27.05;;
64094;SDS011;50353;51.420;5.682;2022-12-10T10:34:46;68.43;;;25.85;;
64094;SDS011;50353;51.420;5.682;2022-12-10T10:37:21;76.25;;;27.52;;
64094;SDS011;50353;51.420;5.682;2022-12-10T10:39:50;68.40;;;26.98;;
64094;SDS011;50353;51.420;5.682;2022-12-10T10:45:06;63.65;;;24.17;;
64094;SDS011;50353;51.420;5.682;2022-12-10T10:50:37;64.00;;;25.70;;
64094;SDS011;50353;51.420;5.682;2022-12-10T10:53:27;64.25;;;24.73;;
64094;SDS011;50353;51.420;5.682;2022-12-10T10:55:57;63.63;;;24.67;;
64094;SDS011;50353;51.420;5.682;2022-12-10T10:58:26;67.60;;;23.52;;
64094;SDS011;50353;51.420;5.682;2022-12-10T11:00:59;77.07;;;26.25;;
64094;SDS011;50353;51.420;5.682;2022-12-10T11:03:28;60.38;;;22.15;;
64094;SDS011;50353;51.420;5.682;2022-12-10T11:05:56;61.10;;;22.40;;
64094;SDS011;50353;51.420;5.682;2022-12-10T11:08:23;46.28;;;18.38;;
64094;SDS011;50353;51.420;5.682;2022-12-10T11:10:51;51.65;;;18.83;;
64094;SDS011;50353;51.420;5.682;2022-12-10T11:13:26;53.63;;;20.77;;
64094;SDS011;50353;51.420;5.682;2022-12-10T11:18:58;62.40;;;24.08;;
64094;SDS011;50353;51.420;5.682;2022-12-10T11:21:29;67.22;;;24.73;;
64094;SDS011;50353;51.420;5.682;2022-12-10T11:23:57;60.65;;;23.20;;
64094;SDS011;50353;51.420;5.682;2022-12-10T11:34:32;65.07;;;24.02;;
64094;SDS011;50353;51.420;5.682;2022-12-10T11:37:10;62.60;;;24.40;;
64094;SDS011;50353;51.420;5.682;2022-12-10T11:42:59;64.13;;;24.17;;
64094;SDS011;50353;51.420;5.682;2022-12-10T11:51:00;67.38;;;24.05;;
64094;SDS011;50353;51.420;5.682;2022-12-10T11:53:47;62.90;;;23.20;;
64094;SDS011;50353;51.420;5.682;2022-12-10T11:56:24;66.80;;;24.27;;
64094;SDS011;50353;51.420;5.682;2022-12-10T11:59:04;67.03;;;23.95;;
64094;SDS011;50353;51.420;5.682;2022-12-10T12:04:25;61.92;;;23.30;;
64094;SDS011;50353;51.420;5.682;2022-12-10T12:09:57;62.05;;;22.98;;
64094;SDS011;50353;51.420;5.682;2022-12-10T12:15:32;63.42;;;25.10;;
64094;SDS011;50353;51.420;5.682;2022-12-10T12:20:52;67.85;;;25.80;;
64094;SDS011;50353;51.420;5.682;2022-12-10T12:23:40;73.85;;;26.45;;
64094;SDS011;50353;51.420;5.682;2022-12-10T12:26:16;75.88;;;28.25;;
64094;SDS011;50353;51.420;5.682;2022-12-10T12:28:55;70.45;;;27.17;;
64094;SDS011;50353;51.420;5.682;2022-12-10T12:31:31;71.38;;;26.08;;
64094;SDS011;50353;51.420;5.682;2022-12-10T12:34:14;88.88;;;34.13;;
64094;SDS011;50353;51.420;5.682;2022-12-10T12:36:45;57.92;;;23.55;;
64094;SDS011;50353;51.420;5.682;2022-12-10T12:39:20;60.28;;;21.83;;
64094;SDS011;50353;51.420;5.682;2022-12-10T12:42:21;62.13;;;23.70;;
64094;SDS011;50353;51.420;5.682;2022-12-10T12:53:10;68.13;;;25.95;;
64094;SDS011;50353;51.420;5.682;2022-12-10T12:55:41;65.75;;;24.50;;
64094;SDS011;50353;51.420;5.682;2022-12-10T12:58:21;67.70;;;26.48;;
64094;SDS011;50353;51.420;5.682;2022-12-10T13:01:26;68.05;;;25.80;;
64094;SDS011;50353;51.420;5.682;2022-12-10T13:03:57;56.97;;;23.35;;
64094;SDS011;50353;51.420;5.682;2022-12-10T13:06:27;57.28;;;22.52;;
64094;SDS011;50353;51.420;5.682;2022-12-10T13:09:15;68.88;;;25.45;;
64094;SDS011;50353;51.420;5.682;2022-12-10T13:11:43;67.60;;;24.27;;
64094;SDS011;50353;51.420;5.682;2022-12-10T13:14:13;61.38;;;24.52;;
64094;SDS011;50353;51.420;5.682;2022-12-10T13:27:45;67.90;;;27.20;;
64094;SDS011;50353;51.420;5.682;2022-12-10T13:42:33;56.90;;;22.40;;
64094;SDS011;50353;51.420;5.682;2022-12-10T13:47:51;66.47;;;24.13;;
64094;SDS011;50353;51.420;5.682;2022-12-10T13:50:18;57.92;;;22.20;;
64094;SDS011;50353;51.420;5.682;2022-12-10T13:55:38;58.80;;;23.40;;
64094;SDS011;50353;51.420;5.682;2022-12-10T14:00:58;66.32;;;24.23;;
64094;SDS011;50353;51.420;5.682;2022-12-10T14:03:50;65.72;;;23.40;;
64094;SDS011;50353;51.420;5.682;2022-12-10T14:06:20;67.90;;;24.73;;
64094;SDS011;50353;51.420;5.682;2022-12-10T14:08:54;64.78;;;24.30;;
64094;SDS011;50353;51.420;5.682;2022-12-10T14:11:25;63.88;;;23.73;;
64094;SDS011;50353;51.420;5.682;2022-12-10T14:13:55;71.82;;;25.17;;
64094;SDS011;50353;51.420;5.682;2022-12-10T14:16:23;74.43;;;26.10;;
64094;SDS011;50353;51.420;5.682;2022-12-10T14:18:55;65.68;;;24.95;;
64094;SDS011;50353;51.420;5.682;2022-12-10T14:21:26;66.10;;;24.85;;
64094;SDS011;50353;51.420;5.682;2022-12-10T14:23:52;72.28;;;24.60;;
64094;SDS011;50353;51.420;5.682;2022-12-10T14:26:19;67.22;;;22.48;;
64094;SDS011;50353;51.420;5.682;2022-12-10T14:28:50;58.15;;;20.85;;
64094;SDS011;50353;51.420;5.682;2022-12-10T14:31:21;72.95;;;23.05;;
64094;SDS011;50353;51.420;5.682;2022-12-10T14:33:52;71.22;;;24.38;;
64094;SDS011;50353;51.420;5.682;2022-12-10T14:36:26;67.90;;;23.63;;
64094;SDS011;50353;51.420;5.682;2022-12-10T14:38:53;74.22;;;26.55;;
64094;SDS011;50353;51.420;5.682;2022-12-10T14:41:19;73.13;;;25.77;;
64094;SDS011;50353;51.420;5.682;2022-12-10T14:43:46;65.47;;;23.38;;
64094;SDS011;50353;51.420;5.682;2022-12-10T14:46:14;61.38;;;22.02;;
64094;SDS011;50353;51.420;5.682;2022-12-10T14:48:42;60.75;;;21.30;;
64094;SDS011;50353;51.420;5.682;2022-12-10T14:51:15;66.50;;;24.08;;
64094;SDS011;50353;51.420;5.682;2022-12-10T14:53:44;64.07;;;22.67;;
64094;SDS011;50353;51.420;5.682;2022-12-10T14:56:11;68.60;;;23.38;;
64094;SDS011;50353;51.420;5.682;2022-12-10T14:58:46;72.57;;;24.90;;
64094;SDS011;50353;51.420;5.682;2022-12-10T15:01:26;55.53;;;20.17;;
64094;SDS011;50353;51.420;5.682;2022-12-10T15:04:01;57.05;;;20.02;;
64094;SDS011;50353;51.420;5.682;2022-12-10T15:06:33;55.92;;;19.98;;
64094;SDS011;50353;51.420;5.682;2022-12-10T15:09:01;63.50;;;20.30;;
64094;SDS011;50353;51.420;5.682;2022-12-10T15:11:28;63.28;;;23.02;;
64094;SDS011;50353;51.420;5.682;2022-12-10T15:14:00;63.03;;;23.45;;
64094;SDS011;50353;51.420;5.682;2022-12-10T15:16:28;68.30;;;24.52;;
64094;SDS011;50353;51.420;5.682;2022-12-10T15:19:13;75.00;;;25.58;;
64094;SDS011;50353;51.420;5.682;2022-12-10T15:21:43;71.15;;;24.90;;
64094;SDS011;50353;51.420;5.682;2022-12-10T15:24:20;82.38;;;25.80;;
64094;SDS011;50353;51.420;5.682;2022-12-10T15:26:50;76.30;;;25.08;;
64094;SDS011;50353;51.420;5.682;2022-12-10T15:31:49;55.83;;;21.23;;
64094;SDS011;50353;51.420;5.682;2022-12-10T15:34:19;60.92;;;22.17;;
64094;SDS011;50353;51.420;5.682;2022-12-10T15:36:48;68.47;;;24.45;;
64094;SDS011;50353;51.420;5.682;2022-12-10T15:41:51;64.32;;;22.65;;
64094;SDS011;50353;51.420;5.682;2022-12-10T15:44:22;68.03;;;25.08;;
64094;SDS011;50353;51.420;5.682;2022-12-10T15:47:12;75.45;;;25.15;;
64094;SDS011;50353;51.420;5.682;2022-12-10T15:49:39;65.43;;;23.80;;
64094;SDS011;50353;51.420;5.682;2022-12-10T15:52:05;65.68;;;24.75;;
64094;SDS011;50353;51.420;5.682;2022-12-10T15:54:36;64.97;;;23.00;;
64094;SDS011;50353;51.420;5.682;2022-12-10T15:57:12;74.60;;;23.83;;
64094;SDS011;50353;51.420;5.682;2022-12-10T15:59:46;50.80;;;20.85;;
64094;SDS011;50353;51.420;5.682;2022-12-10T16:04:41;43.22;;;16.05;;
64094;SDS011;50353;51.420;5.682;2022-12-10T16:07:07;47.33;;;17.52;;
64094;SDS011;50353;51.420;5.682;2022-12-10T16:09:32;55.57;;;20.10;;
64094;SDS011;50353;51.420;5.682;2022-12-10T16:11:58;42.88;;;15.43;;
64094;SDS011;50353;51.420;5.682;2022-12-10T16:14:23;53.13;;;18.95;;
64094;SDS011;50353;51.420;5.682;2022-12-10T16:16:48;48.72;;;17.23;;
64094;SDS011;50353;51.420;5.682;2022-12-10T16:19:14;49.85;;;19.35;;
64094;SDS011;50353;51.420;5.682;2022-12-10T16:21:40;51.75;;;18.85;;
64094;SDS011;50353;51.420;5.682;2022-12-10T16:24:06;65.25;;;21.90;;
64094;SDS011;50353;51.420;5.682;2022-12-10T16:26:31;60.03;;;21.92;;
64094;SDS011;50353;51.420;5.682;2022-12-10T16:28:56;55.35;;;20.52;;
64094;SDS011;50353;51.420;5.682;2022-12-10T16:31:22;48.45;;;18.63;;
64094;SDS011;50353;51.420;5.682;2022-12-10T16:33:47;50.63;;;18.88;;
64094;SDS011;50353;51.420;5.682;2022-12-10T16:36:16;50.60;;;18.52;;